Time;durP1;ratioP1;P1;durP2;ratioP2;P2;SDS_P1;SDS_P2;PMS_P1;PMS_P2;Temp;Humidity;BMP_temperature;BMP_pressure;BME280_temperature;BME280_humidity;BME280_pressure;Samples;Min_cycle;Max_cycle;Signal;HPM_P1;HPM_P2
2023/06/22 00:00:57;;;;;;;10.13;6.55;;;;;;;20.48;87.26;101868.91;5101828;28;20526;-76
2023/06/22 00:03:24;;;;;;;10.90;7.80;;;;;;;20.48;88.24;101868.09;5102251;28;20032;-76
2023/06/22 00:05:52;;;;;;;10.60;7.25;;;;;;;20.37;89.10;101862.53;5092695;28;20045;-76
2023/06/22 00:08:18;;;;;;;13.38;7.55;;;;;;;20.19;90.32;101874.06;5099325;28;20393;-77
2023/06/22 00:10:45;;;;;;;12.10;7.43;;;;;;;20.23;90.23;101859.81;5089950;28;22271;-76
2023/06/22 00:13:11;;;;;;;11.65;7.63;;;;;;;20.33;88.14;101858.91;5078608;28;20111;-77
2023/06/22 00:15:38;;;;;;;13.75;9.30;;;;;;;20.30;90.44;101857.72;5076048;28;20093;-76
2023/06/22 00:18:05;;;;;;;10.18;6.90;;;;;;;20.32;89.51;101860.13;5087408;28;20055;-76
2023/06/22 00:20:30;;;;;;;14.77;8.23;;;;;;;20.19;90.45;101864.75;5093215;28;20520;-76
2023/06/22 00:22:57;;;;;;;13.65;9.60;;;;;;;20.16;90.85;101851.38;5095433;28;20027;-76
2023/06/22 00:25:23;;;;;;;10.18;7.95;;;;;;;20.26;89.86;101845.59;5098869;28;20028;-76
2023/06/22 00:27:49;;;;;;;13.95;8.50;;;;;;;20.21;90.11;101843.19;5091533;28;20415;-76
2023/06/22 00:30:18;;;;;;;13.48;9.35;;;;;;;20.12;89.49;101840.03;5070147;28;20020;-76
2023/06/22 00:32:45;;;;;;;11.80;8.82;;;;;;;20.23;89.36;101846.41;5096799;28;20055;-76
2023/06/22 00:35:12;;;;;;;9.88;6.93;;;;;;;20.17;90.72;101833.09;5091392;28;20043;-76
2023/06/22 00:37:40;;;;;;;12.32;8.18;;;;;;;20.09;90.99;101847.38;5096306;28;20130;-76
2023/06/22 00:40:07;;;;;;;10.57;7.85;;;;;;;20.12;90.58;101850.63;5091074;28;20020;-75
2023/06/22 00:42:32;;;;;;;13.90;9.13;;;;;;;20.01;91.80;101851.50;5104534;28;20032;-75
2023/06/22 00:44:58;;;;;;;13.48;9.63;;;;;;;19.87;92.66;101845.97;5102527;28;20035;-75
2023/06/22 00:47:23;;;;;;;12.30;9.43;;;;;;;19.94;92.12;101847.91;5090566;28;20035;-75
2023/06/22 00:49:51;;;;;;;11.90;8.25;;;;;;;19.94;91.79;101851.56;5090496;28;20437;-75
2023/06/22 00:52:20;;;;;;;14.40;8.95;;;;;;;19.97;92.61;101836.53;5095509;28;20550;-75
2023/06/22 00:54:48;;;;;;;12.07;8.55;;;;;;;19.92;92.79;101841.84;5092686;28;20511;-75
2023/06/22 00:57:17;;;;;;;15.80;9.35;;;;;;;20.00;91.02;101835.69;5083964;28;20475;-75
2023/06/22 00:59:47;;;;;;;13.20;9.45;;;;;;;19.85;92.58;101832.16;5097980;28;20032;-75
2023/06/22 01:02:13;;;;;;;14.23;10.38;;;;;;;19.95;92.09;101824.78;5097519;28;20028;-75
2023/06/22 01:04:39;;;;;;;14.65;11.15;;;;;;;19.86;94.09;101830.16;5091417;28;20032;-75
2023/06/22 01:07:31;;;;;;;16.85;11.05;;;;;;;19.76;93.98;101828.22;5095800;28;20084;-75
2023/06/22 01:10:07;;;;;;;15.23;10.85;;;;;;;19.88;93.74;101830.50;5104354;28;20645;-75
2023/06/22 01:12:40;;;;;;;13.02;9.38;;;;;;;19.92;92.02;101825.59;5093184;28;20122;-75
2023/06/22 01:15:11;;;;;;;19.08;12.32;;;;;;;19.80;93.72;101818.41;5100877;28;20090;-75
2023/06/22 01:17:41;;;;;;;14.48;10.40;;;;;;;19.84;93.17;101819.19;5097073;28;20095;-75
2023/06/22 01:20:09;;;;;;;18.48;11.65;;;;;;;19.74;95.37;101820.09;5077990;28;20590;-76
2023/06/22 01:22:57;;;;;;;21.10;12.27;;;;;;;19.74;95.39;101827.81;5099755;28;20102;-75
2023/06/22 01:25:40;;;;;;;16.30;11.52;;;;;;;19.74;93.65;101824.97;5088785;28;20391;-75
2023/06/22 01:28:42;;;;;;;22.27;12.70;;;;;;;19.68;95.98;101816.06;5077744;28;20036;-75
2023/06/22 01:31:10;;;;;;;19.30;12.20;;;;;;;19.75;94.96;101816.00;5089375;28;20051;-75
2023/06/22 01:33:39;;;;;;;22.92;13.63;;;;;;;19.66;95.76;101816.47;5092614;28;20536;-75
2023/06/22 01:36:06;;;;;;;23.15;13.10;;;;;;;19.86;94.28;101815.94;5091651;28;20031;-75
2023/06/22 01:38:33;;;;;;;18.25;12.13;;;;;;;19.79;95.06;101822.47;5089713;28;20500;-75
2023/06/22 01:41:00;;;;;;;22.45;13.27;;;;;;;19.75;94.01;101823.72;5094494;28;20040;-75
2023/06/22 01:43:27;;;;;;;19.00;12.85;;;;;;;19.70;95.12;101825.78;5091739;28;20046;-75
2023/06/22 01:45:54;;;;;;;22.38;13.63;;;;;;;19.69;95.48;101818.50;5076713;28;20480;-74
2023/06/22 01:48:20;;;;;;;19.02;12.75;;;;;;;19.60;94.86;101818.13;5093115;28;20038;-75
2023/06/22 01:50:45;;;;;;;23.50;14.68;;;;;;;19.58;95.84;101829.09;5090076;28;20035;-75
2023/06/22 01:53:11;;;;;;;21.00;14.23;;;;;;;19.59;96.63;101825.06;5097340;28;20154;-75
2023/06/22 01:55:36;;;;;;;20.98;13.90;;;;;;;19.61;96.20;101821.81;5103974;28;20216;-75
2023/06/22 01:58:02;;;;;;;24.40;15.93;;;;;;;19.52;96.15;101829.97;5100593;28;20028;-75
2023/06/22 02:00:30;;;;;;;24.60;15.20;;;;;;;19.53;96.18;101821.03;5102317;28;20042;-75
2023/06/22 02:03:02;;;;;;;20.65;14.73;;;;;;;19.57;95.89;101824.66;5093365;28;20015;-75
2023/06/22 02:05:33;;;;;;;;;;;;;;;19.66;95.49;101822.16;5096455;28;20523;-75
2023/06/22 02:08:15;;;;;;;24.20;14.15;;;;;;;19.57;96.62;101816.16;5096188;28;19923;-75
2023/06/22 02:10:42;;;;;;;26.83;16.45;;;;;;;19.50;96.45;101811.34;5091351;28;20487;-75
2023/06/22 02:13:10;;;;;;;26.52;16.13;;;;;;;19.43;97.76;101817.06;5095714;28;20039;-75
2023/06/22 02:15:36;;;;;;;26.05;17.08;;;;;;;19.36;98.14;101810.63;5094282;28;20063;-75
2023/06/22 02:18:01;;;;;;;27.33;15.38;;;;;;;19.40;97.26;101803.69;5091415;28;20056;-75
2023/06/22 02:20:27;;;;;;;21.38;14.40;;;;;;;19.40;97.37;101811.41;5101155;28;20031;-74
2023/06/22 02:22:52;;;;;;;24.80;16.45;;;;;;;19.37;97.80;101817.91;5096855;28;20511;-74
2023/06/22 02:25:18;;;;;;;25.45;16.80;;;;;;;19.30;97.34;101813.91;5098196;28;20031;-74
2023/06/22 02:27:44;;;;;;;22.63;15.60;;;;;;;19.42;95.88;101808.97;5098767;28;20046;-75
2023/06/22 02:30:10;;;;;;;23.33;16.48;;;;;;;19.35;96.59;101806.16;5094883;28;20745;-74
2023/06/22 02:32:36;;;;;;;25.00;16.65;;;;;;;19.39;97.29;101812.63;5093772;28;20433;-75
2023/06/22 02:35:04;;;;;;;26.20;16.30;;;;;;;19.40;96.22;101800.88;5093988;28;20073;-75
2023/06/22 02:37:31;;;;;;;28.48;19.00;;;;;;;19.30;99.33;101802.53;5093661;28;20346;-75
2023/06/22 02:39:56;;;;;;;33.05;17.67;;;;;;;19.33;98.86;101806.56;5099671;28;20024;-75
2023/06/22 02:42:22;;;;;;;27.52;17.25;;;;;;;19.23;98.39;101811.13;5094262;28;20377;-75
2023/06/22 02:44:47;;;;;;;29.73;18.17;;;;;;;19.19;98.84;101804.66;5101511;28;20055;-75
2023/06/22 02:47:13;;;;;;;30.92;17.67;;;;;;;19.13;99.12;101809.16;5087177;28;20507;-75
2023/06/22 02:49:38;;;;;;;28.75;19.13;;;;;;;19.25;97.22;101805.84;5094563;28;20115;-75
2023/06/22 02:52:04;;;;;;;30.15;17.92;;;;;;;19.18;97.98;101803.03;5080186;28;20120;-75
2023/06/22 02:54:29;;;;;;;32.17;18.35;;;;;;;19.20;97.14;101800.59;5093037;28;20056;-75
2023/06/22 02:56:55;;;;;;;25.70;17.30;;;;;;;19.11;98.75;101800.25;5082928;28;20019;-74
2023/06/22 02:59:23;;;;;;;30.83;18.63;;;;;;;19.14;99.06;101807.91;5102885;28;20043;-75
2023/06/22 03:01:49;;;;;;;31.27;19.05;;;;;;;19.15;99.05;101806.72;5098641;28;20088;-75
2023/06/22 03:04:15;;;;;;;28.05;17.58;;;;;;;19.16;98.91;101808.31;5093949;28;20028;-75
2023/06/22 03:06:41;;;;;;;30.25;19.60;;;;;;;19.22;98.29;101806.66;5092566;28;20564;-75
2023/06/22 03:09:06;;;;;;;28.40;18.50;;;;;;;19.09;98.40;101802.69;5080546;28;20062;-75
2023/06/22 03:11:33;;;;;;;33.47;20.08;;;;;;;19.08;98.41;101795.41;5096027;28;20035;-77
2023/06/22 03:13:59;;;;;;;29.40;18.88;;;;;;;18.96;100.00;101796.69;5095403;28;20156;-75
2023/06/22 03:16:25;;;;;;;26.75;18.33;;;;;;;19.03;99.10;101802.31;5092595;28;20028;-75
2023/06/22 03:18:50;;;;;;;31.95;19.85;;;;;;;19.06;98.60;101800.69;5096725;28;20019;-75
2023/06/22 03:21:16;;;;;;;29.20;19.10;;;;;;;19.01;100.00;101801.13;5077329;28;20028;-76
2023/06/22 03:23:42;;;;;;;32.90;20.08;;;;;;;19.09;99.00;101802.69;5092579;28;20235;-75
2023/06/22 03:26:09;;;;;;;30.55;18.55;;;;;;;19.08;100.00;101799.06;5095486;28;20028;-76
2023/06/22 03:28:34;;;;;;;33.38;20.15;;;;;;;18.96;100.00;101795.88;5085039;28;20028;-75
2023/06/22 03:31:00;;;;;;;29.42;19.60;;;;;;;18.96;100.00;101798.72;5079826;28;20065;-76
2023/06/22 03:33:25;;;;;;;31.58;20.20;;;;;;;18.94;100.00;101809.69;5098695;28;20028;-75
2023/06/22 03:35:50;;;;;;;32.88;19.92;;;;;;;18.99;100.00;101803.56;5088331;28;21579;-75
2023/06/22 03:38:17;;;;;;;28.80;19.17;;;;;;;18.83;100.00;101802.03;5078049;28;20031;-75
2023/06/22 03:40:43;;;;;;;29.95;19.50;;;;;;;18.89;100.00;101806.06;5089343;28;20039;-75
2023/06/22 03:43:08;;;;;;;28.67;18.98;;;;;;;18.79;100.00;101801.22;5096358;28;20036;-75
2023/06/22 03:45:34;;;;;;;33.25;19.17;;;;;;;18.94;100.00;101809.69;5088843;28;20036;-75
2023/06/22 03:48:00;;;;;;;38.35;21.70;;;;;;;18.91;100.00;101805.66;5092328;28;20035;-75
2023/06/22 03:50:26;;;;;;;30.58;18.67;;;;;;;18.87;100.00;101805.66;5097184;28;20067;-75
2023/06/22 03:52:52;;;;;;;30.80;21.00;;;;;;;18.83;100.00;101801.22;5102247;28;20051;-75
2023/06/22 03:55:19;;;;;;;30.95;19.90;;;;;;;18.84;100.00;101802.81;5096388;28;20032;-77
2023/06/22 03:57:44;;;;;;;27.85;18.85;;;;;;;18.86;100.00;101801.19;5096749;28;20060;-75
2023/06/22 04:00:10;;;;;;;34.60;20.48;;;;;;;18.86;100.00;101801.19;5093371;28;20119;-75
2023/06/22 04:02:36;;;;;;;33.00;19.27;;;;;;;18.85;100.00;101796.75;5077166;28;20024;-75
2023/06/22 04:05:01;;;;;;;30.73;20.33;;;;;;;18.79;100.00;101791.94;5096380;28;20032;-76
2023/06/22 04:07:27;;;;;;;30.75;20.45;;;;;;;18.75;100.00;101793.94;5085778;28;20475;-75
2023/06/22 04:09:52;;;;;;;29.80;20.92;;;;;;;18.78;100.00;101790.25;5098297;28;20016;-75
2023/06/22 04:12:17;;;;;;;28.35;18.52;;;;;;;18.89;100.00;101799.56;5094772;28;20088;-75
2023/06/22 04:14:43;;;;;;;33.38;20.25;;;;;;;18.71;100.00;101801.66;5090338;28;20023;-75
2023/06/22 04:17:08;;;;;;;30.40;18.52;;;;;;;18.64;100.00;101794.78;5081025;28;20047;-75
2023/06/22 04:19:34;;;;;;;26.55;18.73;;;;;;;18.66;100.00;101800.88;5093669;28;20031;-75
2023/06/22 04:21:59;;;;;;;28.15;19.20;;;;;;;18.71;100.00;101805.28;5098596;28;20093;-76
2023/06/22 04:24:24;;;;;;;26.45;18.27;;;;;;;18.77;100.00;101803.66;5084058;28;20035;-75
2023/06/22 04:26:54;;;;;;;27.40;18.70;;;;;;;18.69;100.00;101797.19;5071972;28;20115;-75
2023/06/22 04:29:20;;;;;;;26.75;17.23;;;;;;;18.68;100.00;101806.94;5095479;28;20108;-76
2023/06/22 04:31:51;;;;;;;29.63;18.50;;;;;;;18.70;100.00;101800.84;5074080;28;20120;-76
2023/06/22 04:34:17;;;;;;;27.80;18.27;;;;;;;18.67;100.00;101798.81;5094726;28;20102;-76
2023/06/22 04:36:42;;;;;;;25.88;18.48;;;;;;;18.77;100.00;101802.84;5094644;28;20448;-75
2023/06/22 04:39:09;;;;;;;27.92;18.90;;;;;;;18.59;100.00;101780.22;5099172;28;20024;-75
2023/06/22 04:41:42;;;;;;;29.60;19.10;;;;;;;18.71;100.00;101788.28;5092914;28;20032;-75
2023/06/22 04:44:09;;;;;;;26.75;17.63;;;;;;;18.76;100.00;101795.53;5099236;28;20173;-75
2023/06/22 04:46:40;;;;;;;28.08;18.95;;;;;;;18.95;100.00;101791.41;5084897;28;20024;-75
2023/06/22 04:49:09;;;;;;;26.35;18.63;;;;;;;18.82;100.00;101789.06;5086331;28;20039;-75
2023/06/22 04:51:42;;;;;;;28.73;18.92;;;;;;;18.89;100.00;101791.88;5090832;28;20059;-75
2023/06/22 04:54:09;;;;;;;25.60;16.23;;;;;;;19.02;99.83;101785.72;5090813;28;20066;-76
2023/06/22 04:56:34;;;;;;;25.38;17.90;;;;;;;18.92;100.00;101786.59;5093131;28;20114;-75
2023/06/22 04:59:00;;;;;;;30.63;20.30;;;;;;;18.99;100.00;101776.00;5101684;28;20110;-75
2023/06/22 05:01:26;;;;;;;28.80;19.63;;;;;;;19.00;100.00;101783.28;5093012;28;20028;-76
2023/06/22 05:04:00;;;;;;;28.90;19.40;;;;;;;18.79;100.00;101781.38;5096900;28;20134;-76
2023/06/22 05:06:26;;;;;;;39.50;23.85;;;;;;;18.69;100.00;101779.38;5092845;28;20656;-78
2023/06/22 05:08:59;;;;;;;27.42;17.15;;;;;;;18.96;100.00;101773.19;5091886;28;20036;-76
2023/06/22 05:11:26;;;;;;;31.75;19.80;;;;;;;19.04;100.00;101772.72;5086817;28;20052;-75
2023/06/22 05:13:51;;;;;;;41.13;25.52;;;;;;;18.88;100.00;101776.06;5093470;28;20480;-78
2023/06/22 05:16:17;;;;;;;31.70;20.77;;;;;;;18.87;100.00;101773.66;5081435;28;20035;-77
2023/06/22 05:18:43;;;;;;;32.53;19.02;;;;;;;19.12;100.00;101776.34;5091742;28;20054;-76
2023/06/22 05:21:08;;;;;;;34.13;21.20;;;;;;;18.91;100.00;101774.44;5096096;28;20069;-76
2023/06/22 05:23:34;;;;;;;42.50;25.65;;;;;;;18.87;100.00;101767.97;5093779;28;20118;-77
2023/06/22 05:25:59;;;;;;;37.00;20.80;;;;;;;19.08;100.00;101781.22;5092633;28;20028;-77
2023/06/22 05:28:25;;;;;;;40.88;27.05;;;;;;;19.01;100.00;101778.41;5096272;28;20042;-77
2023/06/22 05:30:50;;;;;;;30.27;19.05;;;;;;;19.09;100.00;101785.66;5092795;28;20096;-77
2023/06/22 05:33:16;;;;;;;36.67;24.80;;;;;;;19.21;100.00;101776.66;5088693;28;20137;-77
2023/06/22 05:35:41;;;;;;;32.28;20.13;;;;;;;19.06;100.00;101781.63;5081103;28;20028;-77
2023/06/22 05:38:06;;;;;;;34.72;22.15;;;;;;;19.12;100.00;101775.50;5094081;28;20110;-77
2023/06/22 05:40:32;;;;;;;33.40;20.45;;;;;;;19.26;100.00;101773.38;5097854;28;20031;-77
2023/06/22 05:42:57;;;;;;;32.83;22.15;;;;;;;19.33;100.00;101783.06;5095543;28;20044;-77
2023/06/22 05:45:23;;;;;;;37.70;24.08;;;;;;;19.32;100.00;101784.31;5077797;28;20040;-77
2023/06/22 05:47:48;;;;;;;32.08;20.10;;;;;;;19.21;100.00;101785.19;5076341;28;20038;-77
2023/06/22 05:50:13;;;;;;;29.52;18.63;;;;;;;19.25;100.00;101780.28;5093745;28;20023;-77
2023/06/22 05:52:39;;;;;;;38.40;24.77;;;;;;;19.37;100.00;101778.16;5097006;28;20118;-77
2023/06/22 05:55:05;;;;;;;34.40;22.83;;;;;;;19.43;100.00;101790.69;5077668;28;20070;-77
2023/06/22 05:57:30;;;;;;;27.00;18.15;;;;;;;19.49;100.00;101792.66;5092652;28;20024;-76
2023/06/22 05:59:56;;;;;;;34.33;22.65;;;;;;;19.60;100.00;101795.41;5093733;28;21706;-76
2023/06/22 06:02:21;;;;;;;31.73;19.85;;;;;;;19.54;100.00;101791.41;5062849;28;20089;-76
2023/06/22 06:04:46;;;;;;;29.67;19.65;;;;;;;19.52;100.00;101796.69;5092633;28;20027;-76
2023/06/22 06:07:12;;;;;;;28.60;15.90;;;;;;;19.60;100.00;101797.47;5091984;28;20476;-77
2023/06/22 06:09:37;;;;;;;34.40;20.15;;;;;;;19.57;100.00;101799.09;5075884;28;20031;-85
2023/06/22 06:12:03;;;;;;;27.98;18.38;;;;;;;19.83;100.00;101791.19;5094605;28;20035;-80
2023/06/22 06:14:28;;;;;;;31.73;17.25;;;;;;;21.56;99.20;101799.19;5082178;28;20403;-79
2023/06/22 06:16:56;;;;;;;30.42;18.08;;;;;;;22.38;93.91;101801.81;5100405;28;20062;-79
2023/06/22 06:19:22;;;;;;;30.05;17.90;;;;;;;21.35;96.46;101793.81;5080274;28;20058;-79
2023/06/22 06:21:47;;;;;;;20.85;14.05;;;;;;;20.73;100.00;101798.78;5093487;28;20431;-79
2023/06/22 06:24:13;;;;;;;28.77;17.35;;;;;;;20.48;100.00;101792.13;5095170;28;20043;-79
2023/06/22 06:26:39;;;;;;;21.27;14.75;;;;;;;20.37;100.00;101797.13;5096733;28;20118;-79
2023/06/22 06:29:04;;;;;;;23.48;15.82;;;;;;;20.22;100.00;101799.34;5097353;28;20032;-79
2023/06/22 06:31:30;;;;;;;24.35;16.58;;;;;;;20.26;100.00;101800.09;5096543;28;20131;-79
2023/06/22 06:33:56;;;;;;;24.27;14.93;;;;;;;20.11;100.00;101807.16;5101115;28;20505;-79
2023/06/22 06:36:21;;;;;;;24.23;14.85;;;;;;;20.25;100.00;101800.53;5093395;28;20487;-79
2023/06/22 06:38:47;;;;;;;25.00;15.93;;;;;;;20.43;100.00;101801.13;5097577;28;20027;-79
2023/06/22 06:41:16;;;;;;;23.33;14.98;;;;;;;20.26;100.00;101799.28;5096743;28;20115;-79
2023/06/22 06:43:45;;;;;;;25.42;16.80;;;;;;;20.22;100.00;101799.34;5092974;28;20448;-80
2023/06/22 06:46:10;;;;;;;24.35;17.27;;;;;;;20.21;100.00;101796.91;5100130;28;20036;-80
2023/06/22 06:48:36;;;;;;;26.67;16.70;;;;;;;20.26;100.00;101800.09;5098767;28;20038;-80
2023/06/22 06:51:01;;;;;;;22.60;14.55;;;;;;;20.32;100.00;101806.13;5107235;28;20051;-80
2023/06/22 06:53:28;;;;;;;25.80;15.27;;;;;;;20.42;100.00;101796.66;5078910;28;20553;-80
2023/06/22 06:55:54;;;;;;;25.13;16.77;;;;;;;20.54;100.00;101800.19;5084539;28;20050;-79
2023/06/22 06:58:19;;;;;;;22.23;13.65;;;;;;;20.72;100.00;101800.78;5079355;28;20058;-79
2023/06/22 07:00:44;;;;;;;18.95;12.93;;;;;;;21.10;100.00;101794.97;5100344;28;20028;-79
2023/06/22 07:03:10;;;;;;;20.48;14.15;;;;;;;21.20;100.00;101794.00;5095690;28;20024;-79
2023/06/22 07:05:35;;;;;;;19.15;13.45;;;;;;;20.90;100.00;101797.72;5091703;28;20023;-79
2023/06/22 07:08:01;;;;;;;22.48;13.13;;;;;;;21.23;99.95;101789.50;5099961;28;20110;-79
2023/06/22 07:10:27;;;;;;;24.05;12.95;;;;;;;21.61;96.95;101790.16;5098697;28;20399;-79
2023/06/22 07:12:52;;;;;;;18.77;11.88;;;;;;;21.06;97.77;101785.69;5076625;28;20169;-79
2023/06/22 07:15:18;;;;;;;21.25;11.75;;;;;;;21.46;98.20;101783.06;5099332;28;20035;-79
2023/06/22 07:17:43;;;;;;;20.30;13.32;;;;;;;21.39;97.69;101780.31;5081683;28;20024;-79
2023/06/22 07:20:12;;;;;;;17.80;12.10;;;;;;;21.68;94.07;101784.31;5102775;28;20024;-79
2023/06/22 07:22:39;;;;;;;19.70;12.40;;;;;;;21.46;94.53;101774.53;5091270;28;20028;-79
2023/06/22 07:25:08;;;;;;;17.65;11.85;;;;;;;21.20;96.02;101776.13;5075348;28;20034;-79
2023/06/22 07:27:39;;;;;;;15.50;10.80;;;;;;;22.17;93.09;101774.47;5097136;28;20039;-79
2023/06/22 07:30:05;;;;;;;19.08;11.75;;;;;;;22.33;91.01;101763.19;5089340;28;20077;-79
2023/06/22 07:32:31;;;;;;;18.80;10.57;;;;;;;21.74;93.19;101758.19;5090918;28;20023;-80
2023/06/22 07:34:56;;;;;;;19.35;12.30;;;;;;;22.18;93.40;101764.66;5096117;28;20020;-79
2023/06/22 07:37:21;;;;;;;15.45;9.93;;;;;;;22.08;93.19;101758.75;5096799;28;20031;-79
2023/06/22 07:39:47;;;;;;;16.23;11.43;;;;;;;22.31;91.81;101774.25;5089025;28;20035;-79
2023/06/22 07:42:18;;;;;;;13.35;9.13;;;;;;;22.10;93.22;101759.13;5091180;28;20378;-80
2023/06/22 07:44:44;;;;;;;17.17;10.98;;;;;;;22.51;92.55;101757.91;5090172;28;20040;-79
2023/06/22 07:47:09;;;;;;;16.92;10.68;;;;;;;22.32;92.64;101758.72;5097152;28;20039;-79
2023/06/22 07:49:34;;;;;;;21.25;13.55;;;;;;;22.22;91.81;101763.38;5092641;28;20066;-79
2023/06/22 07:52:01;;;;;;;17.85;11.15;;;;;;;22.83;91.18;101753.56;5099840;28;20116;-79
2023/06/22 07:54:26;;;;;;;18.10;12.48;;;;;;;22.73;89.72;101760.31;5096608;28;20055;-79
2023/06/22 07:56:53;;;;;;;18.75;11.45;;;;;;;22.72;89.46;101761.53;5100169;28;20332;-79
2023/06/22 07:59:18;;;;;;;16.65;10.07;;;;;;;22.98;89.28;101753.22;5099506;28;20019;-79
2023/06/22 08:01:44;;;;;;;15.15;10.80;;;;;;;22.93;88.34;101751.69;5094540;28;20080;-79
2023/06/22 08:04:09;;;;;;;15.27;10.32;;;;;;;23.46;85.92;101760.25;5097101;28;20042;-79
2023/06/22 08:06:34;;;;;;;14.82;10.65;;;;;;;23.00;87.09;101756.44;5096797;28;20028;-79
2023/06/22 08:09:00;;;;;;;17.05;12.13;;;;;;;22.94;87.28;101747.59;5097523;28;20024;-79
2023/06/22 08:11:25;;;;;;;15.35;11.25;;;;;;;23.01;87.62;101747.47;5081812;28;20433;-79
2023/06/22 08:13:52;;;;;;;17.35;10.07;;;;;;;23.16;87.74;101750.78;5097956;28;20065;-77
2023/06/22 08:16:17;;;;;;;18.42;10.23;;;;;;;23.27;86.11;101748.44;5095940;28;20084;-77
2023/06/22 08:18:43;;;;;;;16.63;11.25;;;;;;;23.18;86.11;101745.41;5090933;28;20047;-77
2023/06/22 08:21:08;;;;;;;13.95;9.10;;;;;;;23.17;86.84;101746.69;5078953;28;20200;-77
2023/06/22 08:23:34;;;;;;;15.63;10.27;;;;;;;23.29;83.87;101740.25;5091546;28;20057;-78
2023/06/22 08:26:00;;;;;;;14.45;9.00;;;;;;;23.47;84.74;101739.81;5095180;28;20429;-77
2023/06/22 08:28:25;;;;;;;16.67;10.20;;;;;;;23.31;85.93;101737.75;5101220;28;20019;-77
2023/06/22 08:30:50;;;;;;;13.73;10.23;;;;;;;23.62;85.24;101745.94;5072829;28;20027;-77
2023/06/22 08:33:16;;;;;;;18.27;10.73;;;;;;;23.34;85.39;101742.56;5080274;28;20067;-77
2023/06/22 08:35:41;;;;;;;14.82;9.63;;;;;;;23.63;85.37;101738.97;5090533;28;20101;-77
2023/06/22 08:38:07;;;;;;;16.20;9.63;;;;;;;23.45;84.82;101741.50;5096082;28;20035;-77
2023/06/22 08:40:32;;;;;;;16.05;11.20;;;;;;;23.54;84.91;101733.88;5091681;28;20016;-77
2023/06/22 08:42:58;;;;;;;15.60;10.32;;;;;;;23.77;83.82;101728.47;5075615;28;20498;-77
2023/06/22 08:45:23;;;;;;;13.30;9.32;;;;;;;23.61;84.26;101714.94;5095199;28;20024;-77
2023/06/22 08:47:48;;;;;;;16.15;10.25;;;;;;;23.70;83.69;101721.66;5099329;28;20107;-76
2023/06/22 08:50:14;;;;;;;15.85;9.40;;;;;;;23.91;82.84;101719.50;5095279;28;20425;-77
2023/06/22 08:52:43;;;;;;;19.23;13.02;;;;;;;23.50;82.65;101715.25;5070787;28;20016;-77
2023/06/22 08:55:10;;;;;;;14.52;8.68;;;;;;;23.70;83.16;101713.06;5077685;28;20055;-77
2023/06/22 08:57:38;;;;;;;15.95;10.65;;;;;;;23.70;83.98;101701.63;5094172;28;20380;-75
2023/06/22 09:00:11;;;;;;;15.38;11.13;;;;;;;23.52;84.84;101696.38;5098663;28;20024;-75
2023/06/22 09:02:36;;;;;;;16.27;10.95;;;;;;;23.93;82.95;101679.81;5099688;28;20046;-76
2023/06/22 09:05:03;;;;;;;15.18;10.30;;;;;;;23.94;82.90;101687.13;5098396;28;20035;-74
2023/06/22 09:07:28;;;;;;;14.63;10.20;;;;;;;24.22;82.82;101678.97;5098377;28;20111;-74
2023/06/22 09:09:55;;;;;;;16.70;12.05;;;;;;;24.46;79.99;101680.28;5098885;28;20073;-74
2023/06/22 09:12:25;;;;;;;17.00;10.80;;;;;;;24.51;79.90;101682.59;5099784;28;20019;-74
2023/06/22 09:14:51;;;;;;;15.50;10.25;;;;;;;24.54;79.13;101675.19;5095820;28;20115;-75
2023/06/22 09:17:16;;;;;;;13.63;9.75;;;;;;;24.55;79.55;101673.91;5100594;28;20472;-75
2023/06/22 09:19:41;;;;;;;14.52;9.27;;;;;;;24.22;80.18;101682.63;5082110;28;20097;-75
2023/06/22 09:22:07;;;;;;;12.02;8.45;;;;;;;24.40;79.97;101673.50;5098790;28;20515;-75
2023/06/22 09:24:33;;;;;;;11.93;8.05;;;;;;;24.38;80.08;101676.03;5081176;28;20555;-75
2023/06/22 09:26:58;;;;;;;12.98;9.13;;;;;;;24.57;80.10;101670.59;5096379;28;20042;-76
2023/06/22 09:29:23;;;;;;;15.30;10.60;;;;;;;24.45;79.36;101675.00;5094523;28;20048;-74
2023/06/22 09:31:49;;;;;;;16.48;11.80;;;;;;;24.17;80.65;101676.69;5088834;28;20038;-75
2023/06/22 09:34:14;;;;;;;17.30;10.82;;;;;;;24.60;79.23;101684.78;5103540;28;20043;-73
2023/06/22 09:36:41;;;;;;;16.77;10.05;;;;;;;24.81;78.27;101680.44;5080699;28;20031;-75
2023/06/22 09:39:06;;;;;;;13.35;9.20;;;;;;;24.55;78.52;101680.41;5094784;28;20054;-75
2023/06/22 09:41:32;;;;;;;13.88;9.52;;;;;;;24.78;78.89;101687.09;5095091;28;20036;-75
2023/06/22 09:43:57;;;;;;;15.13;11.25;;;;;;;24.94;77.59;101684.09;5099500;28;20534;-74
2023/06/22 09:46:25;;;;;;;14.70;11.13;;;;;;;25.63;72.77;101688.31;5094920;28;20043;-75
2023/06/22 09:48:51;;;;;;;14.32;8.88;;;;;;;25.56;73.05;101688.59;5099070;28;20020;-74
2023/06/22 09:51:16;;;;;;;12.25;10.15;;;;;;;25.41;73.26;101690.38;5088673;28;20024;-75
2023/06/22 09:53:41;;;;;;;12.50;8.80;;;;;;;25.69;74.63;101685.69;5097597;28;20028;-74
2023/06/22 09:56:11;;;;;;;14.40;9.32;;;;;;;26.27;69.28;101684.38;5095592;28;20533;-75
2023/06/22 09:58:36;;;;;;;15.68;8.98;;;;;;;26.14;68.72;101673.81;5104422;28;20027;-75
2023/06/22 10:01:01;;;;;;;13.25;9.40;;;;;;;26.07;69.21;101668.31;5102241;28;20085;-75
2023/06/22 10:03:27;;;;;;;13.60;9.55;;;;;;;25.96;69.37;101670.78;5104991;28;20110;-75
2023/06/22 10:05:52;;;;;;;12.77;9.23;;;;;;;26.14;70.45;101668.06;5096823;28;20048;-74
2023/06/22 10:08:18;;;;;;;13.30;8.27;;;;;;;26.45;71.01;101664.41;5092277;28;20430;-75
2023/06/22 10:10:43;;;;;;;9.35;7.20;;;;;;;25.80;69.84;101662.34;5103063;28;20149;-75
2023/06/22 10:13:10;;;;;;;14.75;9.52;;;;;;;25.44;71.25;101652.97;5099878;28;20472;-75
2023/06/22 10:15:36;;;;;;;12.57;8.40;;;;;;;25.65;70.59;101654.25;5104094;28;20455;-74
2023/06/22 10:18:02;;;;;;;11.00;7.43;;;;;;;25.51;70.87;101660.50;5100188;28;20070;-75
2023/06/22 10:20:28;;;;;;;8.27;6.85;;;;;;;25.55;71.23;101658.31;5101754;28;20479;-75
2023/06/22 10:22:54;;;;;;;11.30;7.07;;;;;;;25.64;71.51;101649.81;5104922;28;20471;-75
2023/06/22 10:25:19;;;;;;;9.43;7.05;;;;;;;25.52;69.03;101650.66;5095839;28;20027;-74
2023/06/22 10:27:45;;;;;;;11.38;7.35;;;;;;;25.60;69.50;101654.88;5098399;28;20047;-75
2023/06/22 10:30:15;;;;;;;10.65;7.60;;;;;;;25.50;70.59;101651.09;5094047;28;20578;-75
2023/06/22 10:32:43;;;;;;;10.52;7.70;;;;;;;25.50;70.24;101656.06;5096569;28;20610;-75
2023/06/22 10:35:08;;;;;;;11.02;7.25;;;;;;;25.51;71.33;101646.16;5082908;28;20039;-75
2023/06/22 10:37:33;;;;;;;11.63;7.47;;;;;;;25.47;70.61;101652.06;5101180;28;20031;-75
2023/06/22 10:40:04;;;;;;;8.77;6.45;;;;;;;25.73;70.55;101640.47;5095412;28;20038;-75
2023/06/22 10:42:29;;;;;;;10.35;7.82;;;;;;;26.11;69.03;101637.41;5100721;28;20839;-74
2023/06/22 10:44:54;;;;;;;11.90;7.53;;;;;;;26.20;68.01;101638.75;5102666;28;20169;-75
2023/06/22 10:47:20;;;;;;;8.65;6.03;;;;;;;26.23;70.31;101650.09;5104024;28;20487;-74
2023/06/22 10:49:45;;;;;;;8.23;6.63;;;;;;;25.60;71.19;101642.63;5097407;28;20039;-73
2023/06/22 10:52:10;;;;;;;12.68;6.22;;;;;;;25.68;69.46;101649.69;5094424;28;20016;-74
2023/06/22 10:54:37;;;;;;;8.77;6.40;;;;;;;25.71;70.16;101652.41;5094868;28;20042;-74
2023/06/22 10:57:03;;;;;;;11.20;7.82;;;;;;;25.51;69.80;101651.91;5082511;28;20027;-74
2023/06/22 10:59:29;;;;;;;8.65;6.70;;;;;;;25.69;69.35;101649.19;5103455;28;20027;-74
2023/06/22 11:01:58;;;;;;;10.15;6.18;;;;;;;25.79;70.31;101660.75;5087021;28;20023;-73
2023/06/22 11:04:24;;;;;;;7.65;6.05;;;;;;;25.76;70.25;101653.88;5093242;28;20496;-74
2023/06/22 11:06:50;;;;;;;10.68;6.65;;;;;;;25.66;69.21;101664.47;5095947;28;20064;-74